createdAt,value
2019-05-21T00:00:42.771Z,19.299999
2019-05-21T00:01:43.193Z,20.799999
2019-05-21T00:02:42.891Z,22.5
2019-05-21T00:03:42.938Z,19
2019-05-21T00:04:43.188Z,20.700001
2019-05-21T00:05:43.088Z,20.200001
2019-05-21T00:06:43.150Z,18.799999
2019-05-21T00:07:43.420Z,21
2019-05-21T00:10:43.378Z,20.799999
2019-05-21T00:11:43.438Z,21.200001
2019-05-21T00:12:43.547Z,19.799999
2019-05-21T00:13:43.658Z,21.4
2019-05-21T00:14:43.745Z,20.1
2019-05-21T00:15:43.979Z,21.4
2019-05-21T00:16:43.991Z,22.6
2019-05-21T00:17:43.949Z,20.5
2019-05-21T00:21:44.368Z,22.9
2019-05-21T00:22:44.515Z,20.799999
2019-05-21T00:23:44.715Z,22.700001
2019-05-21T00:24:44.837Z,22.700001
2019-05-21T00:25:44.733Z,21.299999
2019-05-21T00:26:44.832Z,22.9
2019-05-21T00:27:45.055Z,21.700001
2019-05-21T00:30:45.150Z,19.9
2019-05-21T00:31:45.365Z,21.200001
2019-05-21T00:32:45.316Z,22.4
2019-05-21T00:33:45.416Z,22.299999
2019-05-21T00:34:45.468Z,23.799999
2019-05-21T00:35:45.683Z,24.4
2019-05-21T00:36:45.661Z,23.9
2019-05-21T00:37:45.752Z,23.6
2019-05-21T00:40:46.426Z,29.4
2019-05-21T00:41:46.191Z,26.4
2019-05-21T00:42:46.332Z,28.9
2019-05-21T00:43:46.538Z,29.9
2019-05-21T00:44:46.502Z,28.1
2019-05-21T00:45:46.589Z,29.6
2019-05-21T00:46:46.673Z,27.5
2019-05-21T00:47:46.857Z,33.299999
2019-05-21T00:50:46.966Z,35.799999
2019-05-21T00:51:47.106Z,46
2019-05-21T00:52:47.174Z,49.400002
2019-05-21T00:53:47.316Z,54.5
2019-05-21T00:54:47.356Z,60.299999
2019-05-21T00:55:49.717Z,60.200001
2019-05-21T00:56:48.515Z,58.299999
2019-05-21T00:57:47.593Z,61.799999
2019-05-21T01:00:47.842Z,67.900002
2019-05-21T01:01:47.924Z,71.699997
2019-05-21T01:02:47.985Z,70.699997
2019-05-21T01:03:48.121Z,71.400002
2019-05-21T01:04:59.993Z,67
2019-05-21T01:05:49.414Z,68.199997
2019-05-21T01:06:48.382Z,67.5
2019-05-21T01:07:48.453Z,72
2019-05-21T01:10:48.671Z,63.700001
2019-05-21T01:11:48.751Z,65.699997
2019-05-21T01:12:48.813Z,63.700001
2019-05-21T01:13:48.897Z,61.400002
2019-05-21T01:14:49.096Z,60.799999
2019-05-21T01:15:49.018Z,59.799999
2019-05-21T01:16:49.071Z,55.400002
2019-05-21T01:17:49.321Z,51
2019-05-21T01:20:49.354Z,49.700001
2019-05-21T01:21:49.455Z,47.5
2019-05-21T01:22:49.579Z,45.700001
2019-05-21T01:23:49.917Z,46.799999
2019-05-21T01:24:49.723Z,41.700001
2019-05-21T01:25:49.786Z,44.599998
2019-05-21T01:26:49.847Z,40.799999
2019-05-21T01:27:49.910Z,43.599998
2019-05-21T01:30:50.189Z,42.5
2019-05-21T01:31:50.271Z,40.599998
2019-05-21T01:32:50.421Z,40.299999
2019-05-21T01:33:50.549Z,42
2019-05-21T01:34:50.623Z,38.799999
2019-05-21T01:35:50.548Z,38.299999
2019-05-21T01:36:50.683Z,39.099998
2019-05-21T01:37:50.692Z,38.700001
2019-05-21T01:41:51.010Z,36.799999
2019-05-21T01:42:51.080Z,34.099998
2019-05-21T01:43:51.125Z,34.700001
2019-05-21T01:44:51.228Z,34.599998
2019-05-21T01:45:51.398Z,36.599998
2019-05-21T01:46:51.310Z,37.200001
2019-05-21T01:47:51.377Z,35
2019-05-21T01:50:51.696Z,32.799999
2019-05-21T01:51:51.753Z,36.5
2019-05-21T01:52:51.829Z,33.299999
2019-05-21T01:53:51.903Z,36.099998
2019-05-21T01:54:51.985Z,34.599998
2019-05-21T01:55:52.089Z,37.200001
2019-05-21T01:56:52.143Z,36.900002
2019-05-21T01:57:52.381Z,33.400002
2019-05-21T02:00:52.588Z,35
2019-05-21T02:01:52.658Z,36.5
2019-05-21T02:02:52.643Z,37.099998
2019-05-21T02:03:52.729Z,38.700001
2019-05-21T02:04:52.801Z,37.400002
2019-05-21T02:05:52.945Z,38.5
2019-05-21T02:06:53.047Z,37
2019-05-21T02:07:53.116Z,42.799999
2019-05-21T02:10:53.349Z,40.099998
2019-05-21T02:11:53.442Z,43.900002
2019-05-21T02:12:53.523Z,41.900002
2019-05-21T02:13:53.588Z,39.400002
2019-05-21T02:14:53.651Z,44.299999
2019-05-21T02:15:53.757Z,41
2019-05-21T02:16:53.856Z,40.5
2019-05-21T02:17:54.008Z,40.299999
2019-05-21T02:20:54.237Z,44.599998
2019-05-21T02:21:54.391Z,45.400002
2019-05-21T02:22:54.294Z,44.099998
2019-05-21T02:23:54.354Z,46.599998
2019-05-21T02:24:54.422Z,51.900002
2019-05-21T02:25:54.597Z,48.599998
2019-05-21T02:26:54.510Z,49.400002
2019-05-21T02:27:54.587Z,51.299999
2019-05-21T02:30:56.503Z,51.099998
2019-05-21T02:31:55.842Z,57.200001
2019-05-21T02:32:54.977Z,56.299999
2019-05-21T02:33:55.034Z,53.900002
2019-05-21T02:34:55.106Z,53.599998
2019-05-21T02:35:55.343Z,56.700001
2019-05-21T02:36:55.327Z,61.299999
2019-05-21T02:37:55.533Z,65
2019-05-21T02:40:55.600Z,67
2019-05-21T02:41:55.704Z,64.400002
2019-05-21T02:42:55.770Z,65.599998
2019-05-21T02:43:55.806Z,70.599998
2019-05-21T02:44:55.849Z,72.099998
2019-05-21T02:45:55.914Z,68.900002
2019-05-21T02:46:55.996Z,66
2019-05-21T02:47:56.150Z,67.699997
2019-05-21T02:50:56.360Z,71.300003
2019-05-21T02:51:56.526Z,77.599998
2019-05-21T02:52:56.584Z,79.400002
2019-05-21T02:53:57.488Z,79.800003
2019-05-21T02:54:56.606Z,72.199997
2019-05-21T02:55:56.747Z,73.199997
2019-05-21T02:56:56.935Z,76.099998
2019-05-21T02:57:56.858Z,78
2019-05-21T03:03:57.381Z,74.300003
2019-05-21T03:04:57.599Z,73.5
2019-05-21T03:06:12.121Z,69.099998
2019-05-21T03:06:58.553Z,73.099998
2019-05-21T03:07:57.672Z,74.300003
2019-05-21T03:11:58.019Z,75.300003
2019-05-21T03:12:58.200Z,74.300003
2019-05-21T03:13:58.104Z,69
2019-05-21T03:14:58.290Z,72.099998
2019-05-21T03:15:58.210Z,69
2019-05-21T03:16:58.276Z,74.199997
2019-05-21T03:17:58.399Z,69.900002
2019-05-21T03:25:02.283Z,69
2019-05-21T03:26:00.072Z,68.400002
2019-05-21T03:26:59.155Z,67
2019-05-21T03:27:59.235Z,67.5
2019-05-21T03:28:59.339Z,67
2019-05-21T03:29:59.416Z,62
2019-05-21T03:30:59.483Z,61.5
2019-05-21T03:32:59.606Z,63.799999
2019-05-21T03:33:59.733Z,64.300003
2019-05-21T03:34:59.868Z,63.400002
2019-05-21T03:35:59.945Z,61.799999
2019-05-21T03:40:00.224Z,60.700001
2019-05-21T03:41:00.431Z,60.900002
2019-05-21T03:42:00.397Z,66.900002
2019-05-21T03:43:00.470Z,66.599998
2019-05-21T03:44:00.563Z,62.700001
2019-05-21T03:45:01.155Z,67.099998
2019-05-21T03:46:00.808Z,69.099998
2019-05-21T03:47:00.760Z,77.400002
2019-05-21T03:48:00.829Z,76.699997
2019-05-21T03:49:00.947Z,77.400002
2019-05-21T03:50:01.031Z,78.5
2019-05-21T03:51:01.116Z,80.800003
2019-05-21T03:52:01.172Z,82.599998
2019-05-21T03:53:01.265Z,80.900002
2019-05-21T03:54:01.374Z,81.800003
2019-05-21T03:55:02.959Z,77.199997
2019-05-21T03:56:02.642Z,78.400002
2019-05-21T03:57:01.665Z,81.400002
2019-05-21T03:58:01.739Z,78.099998
2019-05-21T03:59:01.802Z,81.400002
2019-05-21T04:00:01.916Z,80.900002
2019-05-21T04:01:01.980Z,72.599998
2019-05-21T04:02:03.035Z,80.199997
2019-05-21T04:03:02.096Z,78.099998
2019-05-21T04:04:03.300Z,79
2019-05-21T04:05:02.237Z,78.699997
2019-05-21T04:06:02.300Z,79.099998
2019-05-21T04:07:02.361Z,85.5
2019-05-21T04:08:02.428Z,82.599998
2019-05-21T04:09:02.415Z,79.699997
2019-05-21T04:10:02.491Z,83.5
2019-05-21T04:11:02.544Z,83.800003
2019-05-21T04:12:02.691Z,86.199997
2019-05-21T04:13:02.741Z,84.699997
2019-05-21T04:14:02.804Z,79.699997
2019-05-21T04:15:02.910Z,68.300003
2019-05-21T04:16:03.959Z,74.699997
2019-05-21T04:17:03.128Z,66.300003
2019-05-21T04:18:03.030Z,70.300003
2019-05-21T04:19:03.097Z,69
2019-05-21T04:20:03.192Z,68.900002
2019-05-21T04:21:03.249Z,65.900002
2019-05-21T04:22:03.356Z,65.800003
2019-05-21T04:23:03.443Z,67.800003
2019-05-21T04:24:03.520Z,69.699997
2019-05-21T04:25:03.820Z,60.200001
2019-05-21T04:26:03.647Z,65.699997
2019-05-21T04:27:03.734Z,63.799999
2019-05-21T04:28:03.869Z,65
2019-05-21T04:29:03.928Z,64.800003
2019-05-21T04:30:05.044Z,68.099998
2019-05-21T04:31:04.161Z,69.300003
2019-05-21T04:32:04.268Z,70.5
2019-05-21T04:33:04.366Z,67
2019-05-21T04:34:04.437Z,69.900002
2019-05-21T04:35:04.527Z,62.900002
2019-05-21T04:36:04.766Z,66.199997
2019-05-21T04:37:10.255Z,64.800003
2019-05-21T04:38:05.926Z,64.699997
2019-05-21T04:39:04.915Z,66.699997
2019-05-21T04:40:05.049Z,67.199997
2019-05-21T04:41:05.095Z,72.199997
2019-05-21T04:42:05.222Z,65.400002
2019-05-21T04:43:05.189Z,61.200001
2019-05-21T04:44:05.481Z,66.5
2019-05-21T04:45:05.537Z,65.5
2019-05-21T04:46:05.465Z,63.400002
2019-05-21T04:47:05.449Z,62.099998
2019-05-21T04:48:05.452Z,59.700001
2019-05-21T04:49:05.471Z,64.300003
2019-05-21T04:50:05.487Z,62.299999
2019-05-21T04:51:05.551Z,63.799999
2019-05-21T04:52:05.589Z,66.599998
2019-05-21T04:53:05.646Z,66.400002
2019-05-21T04:54:05.662Z,63.200001
2019-05-21T04:55:05.645Z,66.199997
2019-05-21T04:56:05.840Z,62.599998
2019-05-21T04:57:05.891Z,67.300003
2019-05-21T04:58:05.901Z,60.299999
2019-05-21T04:59:05.962Z,62.299999
2019-05-21T05:00:05.963Z,66.400002
2019-05-21T05:01:06.011Z,58.5
2019-05-21T05:02:06.049Z,66.099998
2019-05-21T05:03:06.142Z,65.5
2019-05-21T05:04:06.163Z,61
2019-05-21T05:05:06.184Z,61
2019-05-21T05:06:06.231Z,61.799999
2019-05-21T05:07:06.274Z,59.5
2019-05-21T05:08:06.292Z,62.5
2019-05-21T05:09:06.271Z,56.400002
2019-05-21T05:10:06.307Z,60.099998
2019-05-21T05:11:06.314Z,61.099998
2019-05-21T05:12:06.353Z,56
2019-05-21T05:13:06.369Z,58.900002
2019-05-21T05:14:06.368Z,57.799999
2019-05-21T05:15:06.388Z,56.5
2019-05-21T05:16:06.397Z,56.299999
2019-05-21T05:17:06.437Z,60.700001
2019-05-21T05:18:06.464Z,62.799999
2019-05-21T05:19:06.513Z,58.900002
2019-05-21T05:20:06.528Z,59.700001
2019-05-21T05:21:06.542Z,62.5
2019-05-21T05:22:06.587Z,60.799999
2019-05-21T05:23:06.598Z,60.599998
2019-05-21T05:24:06.614Z,59.099998
2019-05-21T05:25:06.636Z,61.599998
2019-05-21T05:26:06.638Z,57.900002
2019-05-21T05:27:06.704Z,56
2019-05-21T05:28:06.724Z,57
2019-05-21T05:29:06.751Z,57.200001
2019-05-21T05:30:06.765Z,57.400002
2019-05-21T05:31:06.815Z,60.400002
2019-05-21T05:32:06.919Z,57.799999
2019-05-21T05:33:06.942Z,55
2019-05-21T05:34:06.942Z,59.700001
2019-05-21T05:35:07.071Z,59.799999
2019-05-21T05:36:07.019Z,56.900002
2019-05-21T05:37:07.069Z,60.099998
2019-05-21T05:38:07.114Z,58.099998
2019-05-21T05:39:07.199Z,59.700001
2019-05-21T05:40:07.275Z,60
2019-05-21T05:41:07.289Z,63.299999
2019-05-21T05:42:07.294Z,57.799999
2019-05-21T05:43:07.330Z,60
2019-05-21T05:44:07.335Z,54.599998
2019-05-21T05:45:07.375Z,55.200001
2019-05-21T05:46:07.374Z,53.400002
2019-05-21T05:47:07.411Z,50.400002
2019-05-21T05:48:07.462Z,51
2019-05-21T05:49:07.497Z,53.400002
2019-05-21T05:50:07.512Z,51.799999
2019-05-21T05:51:07.525Z,50.900002
2019-05-21T05:52:07.562Z,52.5
2019-05-21T05:53:07.608Z,57.700001
2019-05-21T05:54:07.888Z,53.799999
2019-05-21T05:55:07.641Z,55.599998
2019-05-21T05:56:07.664Z,52.5
2019-05-21T05:57:07.813Z,47.299999
2019-05-21T05:58:07.833Z,45.299999
2019-05-21T05:59:07.881Z,50.799999
2019-05-21T06:00:07.898Z,43.5
2019-05-21T06:01:07.887Z,45.900002
2019-05-21T06:02:07.914Z,44.599998
2019-05-21T06:03:07.957Z,46.200001
2019-05-21T06:04:07.966Z,41.200001
2019-05-21T06:05:07.969Z,42
2019-05-21T06:06:07.950Z,38.5
2019-05-21T06:07:08.230Z,40.599998
2019-05-21T06:08:08.284Z,34.599998
2019-05-21T06:09:08.297Z,39.200001
2019-05-21T06:10:08.304Z,39.400002
2019-05-21T06:11:08.315Z,36
2019-05-21T06:12:08.363Z,36.200001
2019-05-21T06:13:08.427Z,35.900002
2019-05-21T06:14:08.498Z,34.400002
2019-05-21T06:15:08.633Z,36.099998
2019-05-21T06:16:08.680Z,35.5
2019-05-21T06:17:08.688Z,35.400002
2019-05-21T06:18:08.763Z,32.799999
2019-05-21T06:19:08.869Z,33.099998
2019-05-21T06:20:08.864Z,32.299999
2019-05-21T06:21:08.899Z,36.5
2019-05-21T06:22:08.955Z,31.799999
2019-05-21T06:23:08.960Z,33.700001
2019-05-21T06:24:09.004Z,29.700001
2019-05-21T06:25:09.089Z,30.299999
2019-05-21T06:26:09.147Z,33.5
2019-05-21T06:27:09.115Z,32.700001
2019-05-21T06:28:09.111Z,30.700001
2019-05-21T06:29:09.143Z,30.799999
2019-05-21T06:30:09.145Z,33
2019-05-21T06:31:09.143Z,29.299999
2019-05-21T06:32:09.184Z,28.299999
2019-05-21T06:33:09.187Z,28.4
2019-05-21T06:34:09.248Z,27.9
2019-05-21T06:35:09.283Z,29.9
2019-05-21T06:36:09.297Z,29
2019-05-21T06:37:09.335Z,27
2019-05-21T06:38:17.474Z,29
2019-05-21T06:39:10.521Z,27.9
2019-05-21T06:40:09.480Z,30
2019-05-21T06:41:09.514Z,28.1
2019-05-21T06:42:09.526Z,28.4
2019-05-21T06:43:09.536Z,28
2019-05-21T06:44:09.614Z,26.1
2019-05-21T06:45:09.687Z,27.5
2019-05-21T06:46:09.696Z,28.4
2019-05-21T06:47:09.731Z,30.700001
2019-05-21T06:48:09.726Z,26.799999
2019-05-21T06:49:09.776Z,28.700001
2019-05-21T06:50:09.800Z,29
2019-05-21T06:51:09.813Z,27
2019-05-21T06:52:09.814Z,27.299999
2019-05-21T06:53:09.869Z,28.4
2019-05-21T06:54:10.001Z,24.799999
2019-05-21T06:55:09.980Z,28.200001
2019-05-21T06:56:09.995Z,27.1
2019-05-21T06:57:10.010Z,25.299999
2019-05-21T06:58:11.047Z,24.200001
2019-05-21T06:59:10.076Z,25.799999
2019-05-21T07:00:10.143Z,25.700001
2019-05-21T07:01:10.258Z,25.4
2019-05-21T07:02:10.184Z,27.5
2019-05-21T07:03:10.193Z,24.4
2019-05-21T07:04:10.310Z,25.200001
2019-05-21T07:05:10.322Z,26.5
2019-05-21T07:06:10.327Z,24.700001
2019-05-21T07:07:10.370Z,25.700001
2019-05-21T07:08:10.379Z,25.5
2019-05-21T07:09:10.408Z,24.200001
2019-05-21T07:10:10.459Z,25.200001
2019-05-21T07:11:10.465Z,26
2019-05-21T07:12:10.489Z,23.299999
2019-05-21T07:13:10.495Z,23.9
2019-05-21T07:14:10.632Z,25.200001
2019-05-21T07:15:11.657Z,25.299999
2019-05-21T07:16:10.692Z,23.799999
2019-05-21T07:17:10.734Z,23.799999
2019-05-21T07:18:10.810Z,23.700001
2019-05-21T07:19:10.811Z,27.4
2019-05-21T07:20:10.854Z,25
2019-05-21T07:21:10.885Z,24.4
2019-05-21T07:22:12.886Z,26.200001
2019-05-21T07:23:12.018Z,26.299999
2019-05-21T07:24:11.027Z,26.5
2019-05-21T07:25:11.178Z,24.4
2019-05-21T07:26:11.280Z,24.5
2019-05-21T07:27:11.115Z,25.299999
2019-05-21T07:28:11.147Z,24.1
2019-05-21T07:29:11.268Z,23.6
2019-05-21T07:30:11.275Z,25.6
2019-05-21T07:31:11.305Z,24.299999
2019-05-21T07:32:11.329Z,24
2019-05-21T07:33:11.557Z,24.700001
2019-05-21T07:34:11.528Z,22.700001
2019-05-21T07:35:11.552Z,23.9
2019-05-21T07:36:11.617Z,21.299999
2019-05-21T07:37:11.697Z,23.700001
2019-05-21T07:38:11.713Z,22.9
2019-05-21T07:39:11.756Z,23.1
2019-05-21T07:40:11.772Z,23
2019-05-21T07:41:11.883Z,21.1
2019-05-21T07:42:11.890Z,22.200001
2019-05-21T07:43:11.901Z,23.9
2019-05-21T07:44:12.120Z,22.299999
2019-05-21T07:45:12.104Z,21.299999
2019-05-21T07:46:12.172Z,23.9
2019-05-21T07:47:12.207Z,22.4
2019-05-21T07:48:12.208Z,24.700001
2019-05-21T07:49:12.233Z,23.1
2019-05-21T07:50:12.249Z,24.9
2019-05-21T07:51:12.403Z,24.6
2019-05-21T07:52:12.418Z,23.799999
2019-05-21T07:53:12.274Z,24.299999
2019-05-21T07:54:12.312Z,22.700001
2019-05-21T07:55:12.368Z,22.799999
2019-05-21T07:56:12.423Z,25.6
2019-05-21T07:57:12.517Z,23.200001
2019-05-21T07:58:12.546Z,25.1
2019-05-21T07:59:12.556Z,24.200001
2019-05-21T08:00:12.560Z,23.799999
2019-05-21T08:01:12.572Z,26.200001
2019-05-21T08:02:12.651Z,24.1
2019-05-21T08:03:12.741Z,23.299999
2019-05-21T08:04:12.771Z,23.1
2019-05-21T08:05:12.910Z,23.4
2019-05-21T08:06:15.012Z,25.4
2019-05-21T08:07:14.253Z,24.200001
2019-05-21T08:08:13.103Z,23.4
2019-05-21T08:09:14.335Z,23.5
2019-05-21T08:10:14.231Z,24.5
2019-05-21T08:11:13.303Z,24.4
2019-05-21T08:12:35.224Z,23
2019-05-21T08:13:14.355Z,25
2019-05-21T08:14:13.473Z,24.1
2019-05-21T08:15:13.531Z,23.9
2019-05-21T08:16:13.538Z,23.6
2019-05-21T08:17:14.574Z,24.700001
2019-05-21T08:18:13.602Z,22.5
2019-05-21T08:19:13.619Z,22.9
2019-05-21T08:20:13.600Z,25.4
2019-05-21T08:21:13.782Z,24
2019-05-21T08:22:13.838Z,25.799999
2019-05-21T08:23:13.851Z,23.299999
2019-05-21T08:24:13.848Z,23.700001
2019-05-21T08:25:14.868Z,24.5
2019-05-21T08:26:14.942Z,21.6
2019-05-21T08:27:13.965Z,24.200001
2019-05-21T08:28:14.028Z,24.700001
2019-05-21T08:29:14.023Z,23.299999
2019-05-21T08:30:14.077Z,25.299999
2019-05-21T08:31:14.071Z,24.6
2019-05-21T08:32:14.068Z,24.700001
2019-05-21T08:33:14.120Z,25.299999
2019-05-21T08:34:14.123Z,24.9
2019-05-21T08:35:14.137Z,26.1
2019-05-21T08:36:14.188Z,23.4
2019-05-21T08:37:14.243Z,23.4
2019-05-21T08:38:14.274Z,24.799999
2019-05-21T08:39:27.603Z,21.4
2019-05-21T08:40:15.348Z,22
2019-05-21T08:41:14.341Z,22.9
2019-05-21T08:42:14.345Z,22.6
2019-05-21T08:43:14.383Z,23.9
2019-05-21T08:44:14.375Z,22.200001
2019-05-21T08:45:14.438Z,23.1
2019-05-21T08:46:14.550Z,23.1
2019-05-21T08:47:14.574Z,22.299999
2019-05-21T08:48:14.644Z,23.1
2019-05-21T08:49:14.834Z,23
2019-05-21T08:50:14.701Z,22.5
2019-05-21T08:51:14.744Z,22.700001
2019-05-21T08:52:14.765Z,21.200001
2019-05-21T08:53:14.853Z,19.799999
2019-05-21T08:54:14.873Z,21.6
2019-05-21T08:55:14.918Z,23.4
2019-05-21T08:56:15.006Z,19.9
2019-05-21T08:57:15.052Z,19.299999
2019-05-21T08:58:15.152Z,20.9
2019-05-21T08:59:15.149Z,20.700001
2019-05-21T09:00:15.202Z,20.799999
2019-05-21T09:01:15.269Z,18.799999
2019-05-21T09:02:15.305Z,19.299999
2019-05-21T09:03:15.345Z,18.799999
2019-05-21T09:04:15.604Z,17.200001
2019-05-21T09:05:15.446Z,19.4
2019-05-21T09:06:15.439Z,18.9
2019-05-21T09:07:15.585Z,17.299999
2019-05-21T09:08:15.555Z,18.1
2019-05-21T09:09:15.570Z,19.700001
2019-05-21T09:10:15.605Z,18.700001
2019-05-21T09:11:15.597Z,18.9
2019-05-21T09:12:15.873Z,20.200001
2019-05-21T09:13:17.829Z,18.5
2019-05-21T09:14:16.742Z,19.5
2019-05-21T09:15:15.736Z,18.4
2019-05-21T09:16:15.748Z,20.9
2019-05-21T09:17:15.792Z,18.6
2019-05-21T09:18:15.789Z,20.799999
2019-05-21T09:19:15.900Z,17.299999
2019-05-21T09:20:15.935Z,20.6
2019-05-21T09:21:15.952Z,20.6
2019-05-21T09:22:15.981Z,19.9
2019-05-21T09:23:15.982Z,20.4
2019-05-21T09:24:16.032Z,19.4
2019-05-21T09:25:16.070Z,18.4
2019-05-21T09:26:16.149Z,20.5
2019-05-21T09:27:16.158Z,18.6
2019-05-21T09:28:16.180Z,17.5
2019-05-21T09:29:16.391Z,18.5
2019-05-21T09:30:16.295Z,18
2019-05-21T09:31:16.309Z,19.799999
2019-05-21T09:32:16.360Z,18.4
2019-05-21T09:33:16.370Z,20.200001
2019-05-21T09:34:16.412Z,19.9
2019-05-21T09:35:16.476Z,20.5
2019-05-21T09:36:16.495Z,20.299999
2019-05-21T09:37:19.509Z,21.9
2019-05-21T09:38:17.874Z,19.4
2019-05-21T09:39:16.795Z,17.299999
2019-05-21T09:40:16.839Z,19.6
2019-05-21T09:41:16.870Z,18.9
2019-05-21T09:42:16.889Z,18.799999
2019-05-21T09:43:16.986Z,18.9
2019-05-21T09:44:16.966Z,21.5
2019-05-21T09:45:17.012Z,18.200001
2019-05-21T09:46:17.042Z,20
2019-05-21T09:47:17.117Z,20.700001
2019-05-21T09:48:17.117Z,19.200001
2019-05-21T09:49:17.143Z,21.1
2019-05-21T09:50:17.344Z,20.200001
2019-05-21T09:51:19.916Z,19
2019-05-21T09:52:18.313Z,20.200001
2019-05-21T09:53:17.320Z,19.799999
2019-05-21T09:54:17.346Z,19.200001
2019-05-21T09:55:17.398Z,21.1
2019-05-21T09:56:17.421Z,19.299999
2019-05-21T09:57:17.462Z,20.5
2019-05-21T09:58:17.541Z,21.200001
2019-05-21T09:59:18.562Z,19.1
2019-05-21T10:00:17.636Z,20.5
2019-05-21T10:01:17.719Z,19.200001
2019-05-21T10:02:17.743Z,18.799999
2019-05-21T10:03:17.733Z,19.799999
2019-05-21T10:04:17.760Z,21
2019-05-21T10:05:17.818Z,20
2019-05-21T10:06:17.845Z,19
2019-05-21T10:07:17.837Z,17.9
2019-05-21T10:08:17.839Z,20.4
2019-05-21T10:09:17.911Z,20.299999
2019-05-21T10:10:18.008Z,20.299999
2019-05-21T10:11:18.175Z,20.299999
2019-05-21T10:12:18.055Z,20.200001
2019-05-21T10:13:18.058Z,19.200001
2019-05-21T10:14:18.095Z,20
2019-05-21T10:15:18.170Z,18.1
2019-05-21T10:16:18.210Z,18.4
2019-05-21T10:17:18.229Z,19.799999
2019-05-21T10:18:18.258Z,17.9
2019-05-21T10:19:18.270Z,20.200001
2019-05-21T10:20:18.311Z,17.299999
2019-05-21T10:21:18.335Z,18.200001
2019-05-21T10:22:18.376Z,20.1
2019-05-21T10:23:18.420Z,19.4
2019-05-21T10:24:18.412Z,18.700001
2019-05-21T10:25:18.403Z,19.5
2019-05-21T10:26:18.444Z,19
2019-05-21T10:27:18.464Z,19.1
2019-05-21T10:28:18.531Z,21.5
2019-05-21T10:29:18.520Z,18.700001
2019-05-21T10:30:18.598Z,18.700001
2019-05-21T10:31:18.781Z,17.4
2019-05-21T10:32:18.646Z,17.6
2019-05-21T10:33:18.692Z,18.6
2019-05-21T10:34:18.764Z,19.6
2019-05-21T10:35:18.795Z,19.4
2019-05-21T10:36:18.870Z,19.4
2019-05-21T10:37:18.936Z,19.6
2019-05-21T10:38:18.943Z,21.700001
2019-05-21T10:39:18.986Z,19.6
2019-05-21T10:40:18.999Z,20.700001
2019-05-21T10:41:19.027Z,20.299999
2019-05-21T10:42:19.090Z,22.200001
2019-05-21T10:43:19.100Z,19.799999
2019-05-21T10:44:19.094Z,21.5
2019-05-21T10:45:19.097Z,20.299999
2019-05-21T10:46:19.147Z,23.4
2019-05-21T10:47:19.202Z,19.299999
2019-05-21T10:48:19.378Z,21.1
2019-05-21T10:49:19.205Z,19.799999
2019-05-21T10:50:19.228Z,21.200001
2019-05-21T10:51:19.227Z,21.1
2019-05-21T10:52:19.271Z,21
2019-05-21T10:53:19.279Z,21.9
2019-05-21T10:54:19.321Z,21.4
2019-05-21T10:55:19.320Z,23.799999
2019-05-21T10:56:19.604Z,21
2019-05-21T10:57:19.645Z,22.200001
2019-05-21T10:58:19.661Z,23.700001
2019-05-21T10:59:19.667Z,22.1
2019-05-21T11:00:22.654Z,21.5
2019-05-21T11:01:20.710Z,21.799999
2019-05-21T11:02:19.811Z,22
2019-05-21T11:03:19.918Z,24.200001
2019-05-21T11:04:19.838Z,24.9
2019-05-21T11:05:19.843Z,23
2019-05-21T11:06:20.055Z,22.299999
2019-05-21T11:07:19.934Z,24.799999
2019-05-21T11:08:23.807Z,25.200001
2019-05-21T11:09:21.094Z,23.4
2019-05-21T11:10:20.169Z,21.9
2019-05-21T11:11:21.163Z,22.799999
2019-05-21T11:12:21.226Z,21.299999
2019-05-21T11:13:20.217Z,22.6
2019-05-21T11:14:20.298Z,22.299999
2019-05-21T11:15:20.376Z,23.5
2019-05-21T11:16:20.465Z,20.6
2019-05-21T11:17:20.562Z,20.9
2019-05-21T11:18:20.576Z,20.799999
2019-05-21T11:19:20.596Z,24.5
2019-05-21T11:20:20.612Z,22.5
2019-05-21T11:21:20.638Z,21.5
2019-05-21T11:22:20.721Z,21.700001
2019-05-21T11:23:20.733Z,22.9
2019-05-21T11:24:20.791Z,20.6
2019-05-21T11:25:20.800Z,22
2019-05-21T11:26:20.792Z,20.9
2019-05-21T11:27:20.830Z,22
2019-05-21T11:28:20.858Z,23.5
2019-05-21T11:29:20.912Z,24.6
2019-05-21T11:30:20.889Z,23
2019-05-21T11:31:21.063Z,24.799999
2019-05-21T11:32:21.071Z,23
2019-05-21T11:33:21.124Z,22.4
2019-05-21T11:34:21.147Z,22.9
2019-05-21T11:35:21.149Z,22.200001
2019-05-21T11:36:21.156Z,23.6
2019-05-21T11:37:21.182Z,25
2019-05-21T11:38:21.285Z,23.4
2019-05-21T11:39:21.554Z,21.799999
2019-05-21T11:40:21.578Z,22.5
2019-05-21T11:41:21.426Z,24.299999
2019-05-21T11:42:21.419Z,23.799999
2019-05-21T11:43:21.460Z,23.700001
2019-05-21T11:44:21.484Z,22.1
2019-05-21T11:45:31.414Z,23.200001
2019-05-21T11:46:22.540Z,29
2019-05-21T11:47:21.557Z,24.5
2019-05-21T11:48:21.601Z,20.299999
2019-05-21T11:49:21.606Z,22.200001
2019-05-21T11:50:21.674Z,21.799999
2019-05-21T11:51:21.734Z,23.799999
2019-05-21T11:52:21.737Z,24.6
2019-05-21T11:53:21.776Z,25.5
2019-05-21T11:54:21.815Z,23.6
2019-05-21T11:55:21.831Z,24.299999
2019-05-21T11:56:21.838Z,25.200001
2019-05-21T11:57:21.960Z,22.200001
2019-05-21T11:58:22.015Z,22.6
2019-05-21T11:59:22.095Z,26.299999
2019-05-21T12:00:22.144Z,25.299999
2019-05-21T12:01:22.135Z,24
2019-05-21T12:02:22.199Z,26.299999
2019-05-21T12:03:22.290Z,26.9
2019-05-21T12:04:22.296Z,25.6
2019-05-21T12:05:22.308Z,25.799999
2019-05-21T12:06:22.340Z,27.799999
2019-05-21T12:07:22.387Z,25.4
2019-05-21T12:08:22.482Z,26.5
2019-05-21T12:09:22.505Z,26.299999
2019-05-21T12:10:22.508Z,25.799999
2019-05-21T12:11:22.534Z,24
2019-05-21T12:12:22.640Z,26.9
2019-05-21T12:13:22.573Z,25.299999
2019-05-21T12:14:22.635Z,24.1
2019-05-21T12:15:22.849Z,26.5
2019-05-21T12:16:22.711Z,25.4
2019-05-21T12:17:22.754Z,24.799999
2019-05-21T12:18:22.779Z,27.5
2019-05-21T12:19:22.874Z,25.700001
2019-05-21T12:20:35.720Z,27.6
2019-05-21T12:21:23.867Z,24.200001
2019-05-21T12:22:22.970Z,24.799999
2019-05-21T12:23:23.978Z,25.700001
2019-05-21T12:24:23.047Z,26.799999
2019-05-21T12:25:23.081Z,23.700001
2019-05-21T12:26:23.091Z,24.1
2019-05-21T12:27:23.154Z,24.1
2019-05-21T12:28:23.238Z,24.299999
2019-05-21T12:29:23.396Z,27.1
2019-05-21T12:30:23.298Z,24.1
2019-05-21T12:31:24.299Z,24.1
2019-05-21T12:32:23.297Z,23
2019-05-21T12:33:23.389Z,24.299999
2019-05-21T12:34:23.446Z,21.5
2019-05-21T12:35:23.452Z,24
2019-05-21T12:36:23.465Z,25.200001
2019-05-21T12:37:23.467Z,24.799999
2019-05-21T12:38:23.509Z,26
2019-05-21T12:39:23.544Z,24
2019-05-21T12:40:23.614Z,23.5
2019-05-21T12:41:23.652Z,23.700001
2019-05-21T12:45:23.888Z,24.1
2019-05-21T12:46:23.915Z,23.4
2019-05-21T12:47:23.932Z,27.1
2019-05-21T12:58:24.396Z,25.1
2019-05-21T12:59:24.433Z,26.200001
2019-05-21T13:00:24.517Z,26
2019-05-21T13:01:24.525Z,24.5
2019-05-21T13:02:25.539Z,25.700001
2019-05-21T13:03:24.533Z,23.6
2019-05-21T13:04:24.604Z,24.6
2019-05-21T13:05:24.670Z,26.299999
2019-05-21T13:06:24.765Z,23.700001
2019-05-21T13:07:24.850Z,25.6
2019-05-21T13:08:24.871Z,25.799999
2019-05-21T13:09:32.529Z,23.5
2019-05-21T13:10:26.971Z,23.700001
2019-05-21T13:11:26.026Z,25.1
2019-05-21T13:12:25.102Z,24.9
2019-05-21T13:13:25.122Z,22.9
2019-05-21T13:16:25.287Z,24
2019-05-21T13:17:25.288Z,22.6
2019-05-21T13:18:25.327Z,25.4
2019-05-21T13:19:25.373Z,23.5
2019-05-21T13:20:25.403Z,24.1
2019-05-21T13:21:25.460Z,25.4
2019-05-21T13:22:25.504Z,23.1
2019-05-21T13:23:25.546Z,25.9
2019-05-21T13:24:25.562Z,27